Time;durP1;ratioP1;P1;durP2;ratioP2;P2;SDS_P1;SDS_P2;PMS_P1;PMS_P2;Temp;Humidity;BMP_temperature;BMP_pressure;BME280_temperature;BME280_humidity;BME280_pressure;Samples;Min_cycle;Max_cycle;Signal;HPM_P1;HPM_P2
2024/03/22 00:02:05;;;;;;;86.70;50.20;;;;;;;9.47;100.00;100744.92;105025;1273;99140;-80
2024/03/22 00:04:50;;;;;;;88.80;51.00;;;;;;;9.46;100.00;100741.16;104961;1274;98107;-78
2024/03/22 00:07:36;;;;;;;83.70;49.40;;;;;;;9.46;100.00;100739.82;104824;1270;97991;-79
2024/03/22 00:10:22;;;;;;;78.50;47.60;;;;;;;9.47;100.00;100740.98;105028;1274;98463;-79
2024/03/22 00:13:07;;;;;;;77.50;46.40;;;;;;;9.46;100.00;100745.90;105011;1274;101404;-78
2024/03/22 00:15:52;;;;;;;72.90;44.10;;;;;;;9.44;100.00;100745.27;104962;1272;99140;-79
2024/03/22 00:18:37;;;;;;;75.50;45.60;;;;;;;9.42;100.00;100743.74;105160;1273;97989;-78
2024/03/22 00:21:23;;;;;;;77.80;45.10;;;;;;;9.40;100.00;100739.27;105031;1273;98024;-78
2024/03/22 00:24:08;;;;;;;80.90;48.60;;;;;;;9.39;100.00;100736.18;105045;1271;99601;-84
2024/03/22 00:26:54;;;;;;;79.10;49.40;;;;;;;9.38;100.00;100730.98;104900;1276;102637;-77
2024/03/22 00:29:39;;;;;;;79.90;48.30;;;;;;;9.37;100.00;100728.98;105005;1271;99132;-80
2024/03/22 00:32:24;;;;;;;77.70;45.90;;;;;;;9.37;100.00;100728.23;105310;1273;99162;-80
2024/03/22 00:35:10;;;;;;;76.50;47.00;;;;;;;9.38;100.00;100724.20;105652;1273;97946;-80
2024/03/22 00:37:56;;;;;;;79.10;47.70;;;;;;;9.38;100.00;100723.64;105081;1273;99876;-78
2024/03/22 00:40:41;;;;;;;80.00;48.40;;;;;;;9.37;100.00;100723.75;105142;1270;101504;-80
2024/03/22 00:43:27;;;;;;;80.00;48.00;;;;;;;9.38;100.00;100723.52;105244;1270;100505;-80
2024/03/22 00:46:13;;;;;;;76.20;45.90;;;;;;;9.39;100.00;100724.08;105743;1271;98997;-79
2024/03/22 00:48:58;;;;;;;78.90;46.50;;;;;;;9.40;100.00;100722.36;105816;1268;98116;-80
2024/03/22 00:51:44;;;;;;;73.10;42.90;;;;;;;9.40;100.00;100719.33;105799;1270;98645;-80
2024/03/22 00:54:30;;;;;;;77.20;45.70;;;;;;;9.40;100.00;100714.52;105807;1271;102632;-79
2024/03/22 00:57:15;;;;;;;71.10;43.80;;;;;;;9.41;100.00;100714.04;105046;1270;99270;-79
2024/03/22 01:00:01;;;;;;;82.40;47.90;;;;;;;9.43;100.00;100711.93;105152;1271;97972;-79
2024/03/22 01:02:46;;;;;;;84.40;48.10;;;;;;;9.45;100.00;100715.42;105050;1271;97884;-78
2024/03/22 01:05:32;;;;;;;79.20;48.30;;;;;;;9.47;100.00;100715.14;105114;1270;97906;-79
2024/03/22 01:08:17;;;;;;;78.90;47.30;;;;;;;9.48;100.00;100717.35;105143;1271;101370;-78
2024/03/22 01:11:03;;;;;;;81.70;46.50;;;;;;;9.49;100.00;100716.46;105070;1271;99138;-78
2024/03/22 01:13:48;;;;;;;76.40;44.50;;;;;;;9.50;100.00;100715.45;104991;1274;97981;-79
2024/03/22 01:16:33;;;;;;;82.80;49.00;;;;;;;9.51;100.00;100717.69;105083;1271;97903;-79
2024/03/22 01:19:20;;;;;;;74.70;45.80;;;;;;;9.52;100.00;100714.34;105101;1271;99803;-80
2024/03/22 01:22:06;;;;;;;79.10;47.20;;;;;;;9.55;100.00;100717.39;105066;1273;102129;-78
2024/03/22 01:24:52;;;;;;;77.40;46.40;;;;;;;9.57;100.00;100721.63;105163;1271;99137;-79
2024/03/22 01:27:37;;;;;;;79.70;45.70;;;;;;;9.59;100.00;100720.02;105193;1270;99285;-79
2024/03/22 01:30:23;;;;;;;82.40;45.40;;;;;;;9.60;100.00;100718.19;105095;1270;98441;-79
2024/03/22 01:33:08;;;;;;;79.60;46.80;;;;;;;9.63;100.00;100713.96;105019;1273;98023;-79
2024/03/22 01:35:53;;;;;;;76.70;42.90;;;;;;;9.65;100.00;100712.34;105047;1274;102622;-78
2024/03/22 01:38:39;;;;;;;76.90;44.80;;;;;;;9.67;100.00;100712.13;105089;1272;100405;-79
2024/03/22 01:41:24;;;;;;;76.20;45.80;;;;;;;9.68;100.00;100708.95;105731;1274;97955;-80
2024/03/22 01:44:09;;;;;;;79.40;45.60;;;;;;;9.69;100.00;100707.16;105543;1268;97998;-79
2024/03/22 01:46:56;;;;;;;76.60;45.40;;;;;;;9.71;100.00;100703.16;105160;1271;97775;-79
2024/03/22 01:49:42;;;;;;;76.90;44.70;;;;;;;9.73;100.00;100702.13;105664;1276;101450;-80
2024/03/22 01:52:27;;;;;;;73.20;45.60;;;;;;;9.73;100.00;100704.32;105547;1271;100679;-80
2024/03/22 01:55:13;;;;;;;68.90;41.90;;;;;;;9.75;100.00;100703.08;105577;1273;98995;-80
2024/03/22 01:57:59;;;;;;;75.60;45.50;;;;;;;9.74;100.00;100701.11;105476;1274;96185;-82
2024/03/22 02:00:44;;;;;;;74.50;45.50;;;;;;;9.72;100.00;100700.44;105190;1273;97834;-79
2024/03/22 02:03:29;;;;;;;82.30;46.80;;;;;;;9.71;100.00;100697.77;105126;1271;101369;-82
2024/03/22 02:06:15;;;;;;;74.60;44.00;;;;;;;9.70;100.00;100698.20;105266;1273;99157;-80
2024/03/22 02:09:00;;;;;;;70.60;44.10;;;;;;;9.69;100.00;100694.69;105512;1273;97998;-79
2024/03/22 02:11:47;;;;;;;62.90;36.60;;;;;;;9.69;100.00;100697.23;105044;1273;97927;-80
2024/03/22 02:14:33;;;;;;;68.70;40.30;;;;;;;9.65;100.00;100692.66;105534;1273;97930;-79
2024/03/22 02:17:18;;;;;;;64.60;39.80;;;;;;;9.59;100.00;100692.09;105653;1270;101381;-78
2024/03/22 02:20:04;;;;;;;67.50;40.10;;;;;;;9.57;100.00;100695.48;105101;1277;108073;-78
2024/03/22 02:22:50;;;;;;;69.90;38.70;;;;;;;9.53;100.00;100695.48;105149;1269;98998;-79
2024/03/22 02:25:35;;;;;;;67.80;39.10;;;;;;;9.49;100.00;100699.35;105123;1271;97902;-78
2024/03/22 02:28:21;;;;;;;70.40;39.20;;;;;;;9.46;100.00;100699.75;105324;1273;98524;-80
2024/03/22 02:31:06;;;;;;;74.80;40.80;;;;;;;9.44;100.00;100699.69;105376;1273;101369;-81
2024/03/22 02:33:51;;;;;;;73.50;40.50;;;;;;;9.41;100.00;100700.46;105097;1272;99146;-79
2024/03/22 02:36:37;;;;;;;70.70;40.80;;;;;;;9.40;100.00;100700.81;105114;1270;98001;-79
2024/03/22 02:39:25;;;;;;;69.70;39.60;;;;;;;9.38;100.00;100701.56;105162;1276;98904;-80
2024/03/22 02:42:10;;;;;;;68.60;41.00;;;;;;;9.37;100.00;100702.93;105245;1272;96386;-80
2024/03/22 02:44:55;;;;;;;72.10;41.70;;;;;;;9.34;100.00;100702.55;105202;1272;101385;-79
2024/03/22 02:47:41;;;;;;;67.70;39.80;;;;;;;9.31;100.00;100705.33;105031;1270;101441;-80
2024/03/22 02:50:26;;;;;;;71.00;39.00;;;;;;;9.29;100.00;100710.40;105229;1271;99014;-79
2024/03/22 02:53:12;;;;;;;71.00;40.00;;;;;;;9.25;100.00;100711.05;105147;1274;97921;-80
2024/03/22 02:56:00;;;;;;;65.10;38.50;;;;;;;9.20;100.00;100710.71;105041;1287;101041;-79
2024/03/22 02:58:46;;;;;;;66.20;38.60;;;;;;;9.14;100.00;100708.95;105030;1272;102708;-80
2024/03/22 03:01:31;;;;;;;63.30;36.90;;;;;;;9.10;100.00;100712.51;105342;1273;99184;-80
2024/03/22 03:04:17;;;;;;;66.60;38.80;;;;;;;9.06;100.00;100715.02;105194;1270;97998;-80
2024/03/22 03:07:02;;;;;;;68.00;38.70;;;;;;;9.06;100.00;100721.08;104903;1276;98129;-80
2024/03/22 03:09:48;;;;;;;62.70;37.50;;;;;;;9.03;100.00;100720.70;105051;1273;97927;-79
2024/03/22 03:12:33;;;;;;;62.80;37.80;;;;;;;9.01;100.00;100726.55;105201;1274;101394;-77
2024/03/22 03:15:19;;;;;;;64.10;37.60;;;;;;;9.00;100.00;100724.84;104700;1272;99128;-79
2024/03/22 03:18:04;;;;;;;58.80;35.50;;;;;;;8.98;100.00;100728.95;105170;1273;99067;-79
2024/03/22 03:20:50;;;;;;;61.30;36.80;;;;;;;8.91;100.00;100732.09;105053;1272;98307;-78
2024/03/22 03:23:35;;;;;;;67.50;37.90;;;;;;;8.82;100.00;100734.02;105174;1273;97916;-78
2024/03/22 03:26:21;;;;;;;63.70;35.60;;;;;;;8.74;100.00;100735.52;105161;1270;101347;-79
2024/03/22 03:29:06;;;;;;;66.10;36.90;;;;;;;8.67;100.00;100736.64;105085;1273;99430;-79
2024/03/22 03:31:52;;;;;;;62.50;37.00;;;;;;;8.64;100.00;100738.12;105042;1270;98005;-79
2024/03/22 03:34:37;;;;;;;64.10;37.30;;;;;;;8.61;100.00;100740.73;104783;1273;98890;-79
2024/03/22 03:37:23;;;;;;;66.70;38.70;;;;;;;8.56;100.00;100745.52;104920;1273;98443;-80
2024/03/22 03:40:08;;;;;;;61.80;35.80;;;;;;;8.52;100.00;100745.29;105174;1273;102108;-78
2024/03/22 03:42:54;;;;;;;60.20;35.90;;;;;;;8.48;100.00;100751.66;105135;1273;100394;-79
2024/03/22 03:45:39;;;;;;;64.50;37.10;;;;;;;8.44;100.00;100750.17;105142;1270;97937;-79
2024/03/22 03:48:25;;;;;;;61.30;35.60;;;;;;;8.39;100.00;100750.11;105147;1284;97969;-78
2024/03/22 03:51:10;;;;;;;69.10;36.80;;;;;;;8.35;100.00;100755.55;105056;1283;98517;-80
2024/03/22 03:53:56;;;;;;;64.50;36.40;;;;;;;8.35;100.00;100756.77;105256;1273;102640;-80
2024/03/22 03:56:41;;;;;;;62.20;36.30;;;;;;;8.32;100.00;100756.52;105094;1281;100397;-78
2024/03/22 03:59:26;;;;;;;64.20;36.40;;;;;;;8.25;100.00;100757.72;105240;1273;99036;-79
2024/03/22 04:02:12;;;;;;;62.50;36.00;;;;;;;8.19;100.00;100757.98;105213;1273;97924;-80
2024/03/22 04:04:57;;;;;;;61.90;35.00;;;;;;;8.16;100.00;100755.80;104841;1273;97988;-79
2024/03/22 04:07:47;;;;;;;63.90;38.00;;;;;;;8.13;100.00;100751.90;105355;1272;101404;-79
2024/03/22 04:10:32;;;;;;;66.80;37.00;;;;;;;8.10;100.00;100750.83;105151;1273;99270;-79
2024/03/22 04:13:17;;;;;;;61.70;34.40;;;;;;;8.07;100.00;100747.03;105192;1270;99506;-79
2024/03/22 04:16:03;;;;;;;64.50;36.00;;;;;;;8.05;100.00;100752.03;105113;1282;97987;-80
2024/03/22 04:18:49;;;;;;;64.00;36.40;;;;;;;8.04;100.00;100748.52;105173;1276;98051;-79
2024/03/22 04:21:34;;;;;;;64.40;37.00;;;;;;;8.05;100.00;100746.70;105161;1273;101340;-78
2024/03/22 04:24:20;;;;;;;64.60;36.20;;;;;;;8.08;100.00;100749.80;105169;1273;99284;-80
2024/03/22 04:27:07;;;;;;;66.20;37.50;;;;;;;8.10;100.00;100758.61;105148;1283;97965;-79
2024/03/22 04:29:52;;;;;;;62.80;35.90;;;;;;;8.11;100.00;100758.17;105261;1279;97984;-79
2024/03/22 04:32:38;;;;;;;64.50;37.80;;;;;;;8.07;100.00;100761.23;105299;1273;98115;-78
2024/03/22 04:35:23;;;;;;;67.90;36.40;;;;;;;8.04;100.00;100762.17;105150;1273;101376;-78
2024/03/22 04:38:09;;;;;;;67.20;36.90;;;;;;;8.03;100.00;100761.77;105092;1275;100907;-80
2024/03/22 04:40:56;;;;;;;62.40;36.10;;;;;;;8.00;100.00;100763.67;105219;1271;99006;-79
2024/03/22 04:43:42;;;;;;;65.50;35.90;;;;;;;7.97;100.00;100764.70;105069;1273;97996;-80
2024/03/22 04:46:28;;;;;;;65.50;36.20;;;;;;;7.97;100.00;100765.54;105215;1270;98498;-80
2024/03/22 04:49:13;;;;;;;62.40;35.20;;;;;;;7.98;100.00;100763.71;105182;1276;103394;-79
2024/03/22 04:51:59;;;;;;;62.60;36.10;;;;;;;7.99;100.00;100760.91;105190;1273;99361;-78
2024/03/22 04:54:44;;;;;;;61.60;34.90;;;;;;;7.98;100.00;100755.99;105161;1273;97994;-78
2024/03/22 04:57:30;;;;;;;62.10;35.60;;;;;;;8.00;100.00;100758.11;105175;1271;97958;-80
2024/03/22 05:00:16;;;;;;;66.90;38.20;;;;;;;8.01;100.00;100757.34;105135;1270;99678;-79
2024/03/22 05:03:02;;;;;;;63.00;34.20;;;;;;;8.00;100.00;100761.38;105142;1273;102294;-79
2024/03/22 05:05:47;;;;;;;61.30;35.50;;;;;;;8.01;100.00;100766.95;105071;1270;100422;-79
2024/03/22 05:08:33;;;;;;;61.70;35.70;;;;;;;8.02;100.00;100767.20;105113;1276;99016;-79
2024/03/22 05:11:18;;;;;;;61.80;35.40;;;;;;;8.02;100.00;100768.29;105204;1273;98021;-79
2024/03/22 05:14:03;;;;;;;62.10;34.90;;;;;;;8.01;100.00;100771.41;105119;1270;98059;-79
2024/03/22 05:16:48;;;;;;;65.50;35.90;;;;;;;8.02;100.00;100770.59;105068;1273;102135;-78
2024/03/22 05:19:34;;;;;;;63.50;34.80;;;;;;;8.03;100.00;100766.35;105082;1269;100408;-79
2024/03/22 05:22:20;;;;;;;61.60;34.80;;;;;;;8.03;100.00;100766.10;105227;1270;98022;-79
2024/03/22 05:25:06;;;;;;;62.10;34.70;;;;;;;8.03;100.00;100766.31;105165;1270;97900;-80
2024/03/22 05:27:52;;;;;;;61.80;35.20;;;;;;;8.02;100.00;100767.67;105079;1271;98011;-80
2024/03/22 05:30:37;;;;;;;59.90;34.90;;;;;;;7.98;100.00;100762.23;105613;1271;102059;-79
2024/03/22 05:33:22;;;;;;;59.90;33.70;;;;;;;7.97;100.00;100761.01;105542;1273;99168;-78
2024/03/22 05:36:08;;;;;;;61.90;35.80;;;;;;;7.94;100.00;100759.02;105085;1270;98668;-80
2024/03/22 05:38:53;;;;;;;65.20;34.90;;;;;;;7.91;100.00;100755.70;105065;1273;98015;-80
2024/03/22 05:41:38;;;;;;;65.20;36.80;;;;;;;7.92;100.00;100752.64;105030;1276;98531;-79
2024/03/22 05:44:24;;;;;;;62.20;35.10;;;;;;;7.92;100.00;100753.73;105174;1272;101301;-79
2024/03/22 05:47:10;;;;;;;59.70;34.40;;;;;;;7.88;100.00;100746.84;105014;1274;99137;-79
2024/03/22 05:49:55;;;;;;;58.90;35.60;;;;;;;7.85;100.00;100746.60;105066;1273;97952;-78
2024/03/22 05:52:40;;;;;;;61.30;33.40;;;;;;;7.84;100.00;100745.52;104943;1269;97914;-78
2024/03/22 05:55:27;;;;;;;63.90;36.40;;;;;;;7.85;100.00;100751.96;104764;1274;98865;-78
2024/03/22 05:58:12;;;;;;;66.10;37.60;;;;;;;7.90;100.00;100748.90;104586;1270;101382;-78
2024/03/22 06:00:58;;;;;;;63.60;35.50;;;;;;;7.95;100.00;100749.59;104672;1273;100372;-78
2024/03/22 06:03:43;;;;;;;64.20;35.90;;;;;;;7.99;100.00;100753.46;104675;1284;98524;-79
2024/03/22 06:06:29;;;;;;;64.00;36.80;;;;;;;8.02;100.00;100758.13;104792;1273;98055;-78
2024/03/22 06:09:23;;;;;;;62.80;35.20;;;;;;;8.03;100.00;100763.27;105085;1270;97896;-79
2024/03/22 06:12:09;;;;;;;63.60;34.10;;;;;;;8.07;100.00;100769.14;105075;1273;102935;-79
2024/03/22 06:14:54;;;;;;;61.60;35.50;;;;;;;8.10;100.00;100769.71;105028;1271;100372;-80
2024/03/22 06:17:39;;;;;;;66.00;36.50;;;;;;;8.11;100.00;100769.73;105005;1280;98005;-80
2024/03/22 06:20:25;;;;;;;56.50;32.80;;;;;;;8.11;100.00;100765.30;105047;1276;98199;-79
2024/03/22 06:23:10;;;;;;;57.90;32.50;;;;;;;8.13;100.00;100761.65;105100;1270;98423;-79
2024/03/22 06:25:56;;;;;;;59.40;32.60;;;;;;;8.17;100.00;100764.02;105448;1270;102158;-77
2024/03/22 06:28:41;;;;;;;64.70;36.00;;;;;;;8.21;100.00;100766.64;105001;1273;99210;-79
2024/03/22 06:31:26;;;;;;;58.50;33.40;;;;;;;8.24;100.00;100766.48;105063;1273;98002;-78
2024/03/22 06:34:11;;;;;;;66.60;35.80;;;;;;;8.28;100.00;100762.02;105209;1270;98755;-81
2024/03/22 06:36:57;;;;;;;60.30;33.50;;;;;;;8.32;100.00;100763.86;105012;1277;98469;-80
2024/03/22 06:39:42;;;;;;;55.90;31.40;;;;;;;8.35;100.00;100767.64;105145;1270;102641;-79
2024/03/22 06:42:27;;;;;;;63.00;33.90;;;;;;;8.37;100.00;100765.76;105054;1270;99159;-78
2024/03/22 06:45:13;;;;;;;66.30;36.30;;;;;;;8.38;100.00;100766.92;105716;1270;98116;-79
2024/03/22 06:47:58;;;;;;;64.70;38.20;;;;;;;8.40;100.00;100771.73;105570;1270;97938;-80
2024/03/22 06:50:43;;;;;;;62.60;37.70;;;;;;;8.41;100.00;100770.16;105448;1273;97934;-81
2024/03/22 06:53:29;;;;;;;66.20;36.20;;;;;;;8.41;100.00;100768.70;105016;1273;101386;-79
2024/03/22 06:56:14;;;;;;;59.50;33.30;;;;;;;8.38;100.00;100771.67;104954;1270;99154;-78
2024/03/22 06:59:00;;;;;;;65.20;36.90;;;;;;;8.37;100.00;100772.50;104872;1268;98636;-80
2024/03/22 07:01:45;;;;;;;64.10;36.30;;;;;;;8.36;100.00;100775.36;105421;1270;99199;-79
2024/03/22 07:04:30;;;;;;;65.80;38.20;;;;;;;8.35;100.00;100774.20;105156;1273;98118;-79
2024/03/22 07:07:16;;;;;;;58.80;35.20;;;;;;;8.35;100.00;100773.85;105067;1270;101382;-79
2024/03/22 07:10:03;;;;;;;63.80;36.00;;;;;;;8.36;100.00;100775.50;105013;1274;99149;-80
2024/03/22 07:12:48;;;;;;;65.90;37.10;;;;;;;8.37;100.00;100775.21;105045;1270;98572;-80
2024/03/22 07:15:34;;;;;;;61.90;34.10;;;;;;;8.38;100.00;100774.40;105109;1270;97998;-78
2024/03/22 07:18:19;;;;;;;63.50;35.60;;;;;;;8.41;100.00;100768.05;105024;1270;98549;-78
2024/03/22 07:21:05;;;;;;;67.00;36.20;;;;;;;8.44;100.00;100765.93;104785;1273;101373;-78
2024/03/22 07:23:50;;;;;;;61.10;34.50;;;;;;;8.47;100.00;100761.82;104967;1273;100363;-80
2024/03/22 07:26:36;;;;;;;69.00;35.70;;;;;;;8.49;100.00;100759.58;104940;1273;98188;-78
2024/03/22 07:29:21;;;;;;;63.10;35.70;;;;;;;8.52;100.00;100754.05;104927;1269;98127;-80
2024/03/22 07:32:07;;;;;;;61.60;34.10;;;;;;;8.57;100.00;100752.88;104979;1273;97823;-79
2024/03/22 07:34:52;;;;;;;61.90;35.30;;;;;;;8.56;100.00;100756.00;104878;1270;101403;-87
2024/03/22 07:37:38;;;;;;;63.80;34.60;;;;;;;8.57;100.00;100749.11;105217;1271;100403;-84
2024/03/22 07:40:24;;;;;;;66.50;35.10;;;;;;;8.60;100.00;100742.91;105194;1273;98065;-79
2024/03/22 07:43:09;;;;;;;63.90;35.50;;;;;;;8.63;100.00;100744.27;105333;1268;98131;-82
2024/03/22 07:45:55;;;;;;;67.20;37.30;;;;;;;8.65;100.00;100740.25;105275;1270;98465;-83
2024/03/22 07:48:40;;;;;;;64.80;38.60;;;;;;;8.68;100.00;100739.59;105194;1271;101366;-80
2024/03/22 07:51:26;;;;;;;68.00;40.10;;;;;;;8.72;100.00;100740.50;105087;1270;99914;-78
2024/03/22 07:54:11;;;;;;;69.60;39.90;;;;;;;8.75;100.00;100739.63;104515;1271;98043;-79
2024/03/22 07:56:57;;;;;;;67.40;38.70;;;;;;;8.76;100.00;100734.95;104585;1273;97907;-77
2024/03/22 07:59:43;;;;;;;67.10;38.30;;;;;;;8.72;100.00;100734.52;104587;1270;98065;-77
2024/03/22 08:02:29;;;;;;;70.20;39.80;;;;;;;8.68;100.00;100735.98;104658;1281;101497;-78
2024/03/22 08:05:14;;;;;;;71.70;42.40;;;;;;;8.69;100.00;100733.60;104503;1270;99157;-77
2024/03/22 08:08:00;;;;;;;66.80;39.50;;;;;;;8.70;100.00;100733.27;104514;1270;98002;-78
2024/03/22 08:10:45;;;;;;;61.10;35.90;;;;;;;8.75;100.00;100732.50;104592;1270;98842;-78
2024/03/22 08:13:30;;;;;;;54.40;34.50;;;;;;;8.83;100.00;100733.63;104619;1273;98546;-77
2024/03/22 08:16:16;;;;;;;50.10;31.70;;;;;;;8.85;100.00;100735.16;104555;1273;102386;-77
2024/03/22 08:19:01;;;;;;;58.80;34.80;;;;;;;8.86;100.00;100726.60;104554;1270;100400;-77
2024/03/22 08:21:46;;;;;;;46.70;29.20;;;;;;;8.88;100.00;100727.48;104627;1270;98792;-77
2024/03/22 08:24:32;;;;;;;56.80;33.40;;;;;;;8.90;100.00;100730.12;104562;1273;98976;-77
2024/03/22 08:27:18;;;;;;;51.90;31.20;;;;;;;8.90;100.00;100729.23;104590;1273;98109;-77
2024/03/22 08:30:03;;;;;;;52.40;31.10;;;;;;;8.90;100.00;100726.71;104624;1273;101389;-78
2024/03/22 08:32:49;;;;;;;51.50;31.80;;;;;;;8.93;100.00;100723.54;104811;1268;100405;-77
2024/03/22 08:35:34;;;;;;;51.90;31.30;;;;;;;8.94;100.00;100724.63;104647;1273;98043;-78
2024/03/22 08:38:20;;;;;;;46.70;29.40;;;;;;;8.95;100.00;100721.52;104501;1273;99167;-77
2024/03/22 08:41:05;;;;;;;46.40;29.20;;;;;;;8.95;100.00;100718.31;104714;1273;97993;-75
2024/03/22 08:43:51;;;;;;;48.30;29.10;;;;;;;8.96;100.00;100722.48;104475;1270;102252;-77
2024/03/22 08:46:36;;;;;;;46.20;28.50;;;;;;;8.94;100.00;100724.98;104629;1270;100433;-78
2024/03/22 08:49:23;;;;;;;47.20;30.10;;;;;;;8.93;100.00;100726.55;104487;1284;99246;-78
2024/03/22 08:52:08;;;;;;;46.00;28.30;;;;;;;8.92;100.00;100724.14;104358;1272;99409;-77
2024/03/22 08:54:54;;;;;;;52.00;29.80;;;;;;;8.89;100.00;100721.94;104655;1268;99433;-78
2024/03/22 08:57:39;;;;;;;51.20;30.00;;;;;;;8.87;100.00;100722.61;104559;1273;102754;-78
2024/03/22 09:00:24;;;;;;;50.30;30.30;;;;;;;8.86;100.00;100724.36;104299;1285;99534;-77
2024/03/22 09:03:10;;;;;;;52.50;33.70;;;;;;;8.88;100.00;100723.55;104332;1273;99386;-77
2024/03/22 09:05:55;;;;;;;68.90;42.60;;;;;;;8.89;100.00;100717.86;104423;1269;99316;-77
2024/03/22 09:08:41;;;;;;;134.40;77.00;;;;;;;8.91;100.00;100722.21;104440;1274;99775;-78
2024/03/22 09:11:26;;;;;;;168.70;93.20;;;;;;;8.91;100.00;100716.66;104570;1270;103984;-77
2024/03/22 09:14:12;;;;;;;169.20;96.50;;;;;;;8.91;100.00;100715.77;104469;1269;99279;-78
2024/03/22 09:16:57;;;;;;;110.30;67.70;;;;;;;8.89;100.00;100714.00;104469;1268;99349;-76
2024/03/22 09:19:43;;;;;;;71.40;46.00;;;;;;;8.88;100.00;100713.40;104635;1273;99266;-77
2024/03/22 09:22:29;;;;;;;65.60;42.20;;;;;;;8.90;100.00;100714.22;104501;1269;99950;-79
2024/03/22 09:25:14;;;;;;;69.50;44.60;;;;;;;8.93;100.00;100705.58;104645;1270;102731;-78
2024/03/22 09:27:59;;;;;;;71.10;45.60;;;;;;;8.94;100.00;100701.33;104682;1273;99444;-76
2024/03/22 09:30:45;;;;;;;77.50;50.70;;;;;;;8.93;100.00;100695.23;104552;1271;99368;-77
2024/03/22 09:33:30;;;;;;;71.90;49.30;;;;;;;8.94;100.00;100691.05;104475;1273;99224;-76
2024/03/22 09:36:16;;;;;;;64.80;42.50;;;;;;;8.93;100.00;100686.70;104486;1270;100007;-76
2024/03/22 09:39:02;;;;;;;74.30;49.20;;;;;;;8.93;100.00;100684.46;104525;1269;102776;-77
2024/03/22 09:41:48;;;;;;;67.20;45.20;;;;;;;8.95;100.00;100686.80;104558;1268;100422;-77
2024/03/22 09:44:36;;;;;;;66.60;43.50;;;;;;;8.94;100.00;100685.06;104403;1270;99409;-77
2024/03/22 09:47:21;;;;;;;55.60;36.40;;;;;;;8.94;100.00;100683.33;104447;1273;99406;-77
2024/03/22 09:50:08;;;;;;;46.30;30.30;;;;;;;8.93;100.00;100682.96;104560;1269;99831;-77
2024/03/22 09:52:53;;;;;;;50.40;30.80;;;;;;;8.92;100.00;100677.73;104720;1273;102718;-78
2024/03/22 09:55:43;;;;;;;51.30;30.80;;;;;;;8.95;100.00;100674.23;104539;1273;99988;-78
2024/03/22 09:58:28;;;;;;;45.50;29.20;;;;;;;9.03;100.00;100672.70;104462;1270;99369;-78
2024/03/22 10:01:14;;;;;;;47.60;30.40;;;;;;;9.07;100.00;100673.27;104415;1271;99384;-78
2024/03/22 10:03:59;;;;;;;50.90;32.70;;;;;;;9.10;100.00;100673.26;104565;1270;99791;-78
2024/03/22 10:06:47;;;;;;;49.90;32.30;;;;;;;9.16;100.00;100673.42;104449;1271;102750;-78
2024/03/22 10:09:33;;;;;;;44.90;28.70;;;;;;;9.24;100.00;100671.77;104737;1272;100625;-77
2024/03/22 10:12:20;;;;;;;43.20;27.00;;;;;;;9.32;100.00;100666.20;104514;1270;99470;-77
2024/03/22 10:15:08;;;;;;;42.10;26.40;;;;;;;9.40;100.00;100666.09;104523;1268;99367;-78
2024/03/22 10:17:56;;;;;;;41.00;25.50;;;;;;;9.44;100.00;100668.61;104587;1270;101015;-77
2024/03/22 10:20:41;;;;;;;37.90;24.10;;;;;;;9.46;100.00;100668.86;104553;1273;103363;-78
2024/03/22 10:23:28;;;;;;;34.20;23.00;;;;;;;9.48;100.00;100670.45;104614;1271;99288;-77
2024/03/22 10:26:13;;;;;;;35.30;23.40;;;;;;;9.49;100.00;100669.60;104432;1273;99343;-77
2024/03/22 10:28:59;;;;;;;32.30;20.30;;;;;;;9.49;100.00;100666.96;104539;1275;99466;-77
2024/03/22 10:31:44;;;;;;;31.70;19.50;;;;;;;9.48;100.00;100659.42;104560;1270;99282;-77
2024/03/22 10:34:29;;;;;;;29.60;19.60;;;;;;;9.45;100.00;100651.96;104568;1272;102719;-77
2024/03/22 10:37:15;;;;;;;30.30;19.40;;;;;;;9.45;100.00;100647.85;104493;1268;100385;-77
2024/03/22 10:40:07;;;;;;;30.70;19.10;;;;;;;9.48;100.00;100645.16;104575;1273;99311;-77
2024/03/22 10:42:52;;;;;;;46.20;24.30;;;;;;;9.52;100.00;100640.17;104474;1269;99250;-78
2024/03/22 10:45:40;;;;;;;48.70;24.00;;;;;;;9.59;100.00;100637.28;104545;1268;99852;-77
2024/03/22 10:48:29;;;;;;;113.80;49.90;;;;;;;9.63;100.00;100635.71;104600;1268;103945;-76
2024/03/22 10:51:16;;;;;;;113.00;55.90;;;;;;;9.66;100.00;100633.13;104357;1272;100151;-77
2024/03/22 10:54:04;;;;;;;45.60;24.90;;;;;;;9.67;100.00;100634.53;104866;1268;99371;-78
2024/03/22 10:56:51;;;;;;;31.00;19.30;;;;;;;9.64;100.00;100635.27;104774;1272;99354;-78
2024/03/22 10:59:36;;;;;;;30.90;20.00;;;;;;;9.60;100.00;100632.82;104552;1270;99963;-77
2024/03/22 11:02:24;;;;;;;32.40;22.10;;;;;;;9.58;100.00;100629.48;104503;1268;103329;-77
2024/03/22 11:05:18;;;;;;;34.00;20.90;;;;;;;9.59;100.00;100635.34;105702;1270;100097;-76
2024/03/22 11:08:05;;;;;;;32.10;20.50;;;;;;;9.55;100.00;100633.83;105039;1269;100193;-77
2024/03/22 11:10:50;;;;;;;33.70;22.10;;;;;;;9.53;100.00;100629.10;104444;1270;99618;-77
2024/03/22 11:13:36;;;;;;;32.50;20.80;;;;;;;9.52;100.00;100625.60;104507;1273;99922;-78
2024/03/22 11:16:22;;;;;;;31.80;19.90;;;;;;;9.52;100.00;100619.39;104527;1273;102745;-77
2024/03/22 11:19:08;;;;;;;30.40;19.30;;;;;;;9.51;100.00;100613.90;104503;1273;99819;-77
2024/03/22 11:21:54;;;;;;;32.10;20.10;;;;;;;9.55;100.00;100609.02;104585;1270;99428;-79
2024/03/22 11:24:40;;;;;;;31.80;19.90;;;;;;;9.61;100.00;100604.06;104665;1273;99364;-77
2024/03/22 11:27:26;;;;;;;32.70;19.50;;;;;;;9.63;100.00;100599.00;104454;1270;99801;-77
2024/03/22 11:30:12;;;;;;;32.00;19.70;;;;;;;9.65;100.00;100595.86;104432;1273;104037;-78
2024/03/22 11:33:01;;;;;;;31.30;20.50;;;;;;;9.70;100.00;100597.27;104465;1270;99342;-76
2024/03/22 11:35:46;;;;;;;34.10;23.00;;;;;;;9.72;100.00;100599.27;104647;1274;99372;-77
2024/03/22 11:38:32;;;;;;;31.80;19.60;;;;;;;9.72;100.00;100591.80;104654;1270;99259;-76
2024/03/22 11:41:21;;;;;;;32.80;21.00;;;;;;;9.75;100.00;100583.08;104407;1273;100327;-77
2024/03/22 11:44:06;;;;;;;32.70;19.90;;;;;;;9.79;100.00;100578.53;104508;1269;102785;-77
2024/03/22 11:46:52;;;;;;;31.00;18.70;;;;;;;9.83;100.00;100578.05;104362;1273;99414;-77
2024/03/22 11:49:38;;;;;;;28.10;18.40;;;;;;;9.85;100.00;100571.88;104350;1271;99257;-78
2024/03/22 11:52:26;;;;;;;25.70;18.00;;;;;;;9.88;100.00;100570.47;104575;1270;99256;-78
2024/03/22 11:55:12;;;;;;;27.90;16.50;;;;;;;9.91;100.00;100572.94;104487;1268;99348;-78
2024/03/22 11:57:58;;;;;;;24.80;16.50;;;;;;;9.92;100.00;100571.77;104353;1272;102884;-77
2024/03/22 12:00:44;;;;;;;22.50;15.50;;;;;;;9.92;100.00;100568.27;104491;1276;100391;-78
2024/03/22 12:03:29;;;;;;;23.80;15.00;;;;;;;9.93;100.00;100571.95;104721;1271;99467;-78
2024/03/22 12:06:15;;;;;;;21.60;15.40;;;;;;;9.94;100.00;100570.77;104490;1268;100600;-78
2024/03/22 12:09:01;;;;;;;25.60;15.40;;;;;;;9.93;100.00;100569.67;104454;1273;99774;-76
2024/03/22 12:11:46;;;;;;;24.10;15.60;;;;;;;9.94;100.00;100564.34;104466;1273;103986;-78
2024/03/22 12:14:33;;;;;;;25.40;16.50;;;;;;;9.97;100.00;100562.75;104487;1273;100418;-77
2024/03/22 12:17:18;;;;;;;22.90;15.00;;;;;;;10.02;100.00;100564.30;104437;1273;99289;-78
2024/03/22 12:20:04;;;;;;;22.60;15.30;;;;;;;10.06;100.00;100552.50;104470;1270;99365;-77
2024/03/22 12:22:50;;;;;;;25.20;16.90;;;;;;;10.09;100.00;100548.39;104428;1272;99886;-78